Time;durP1;ratioP1;P1;durP2;ratioP2;P2;SDS_P1;SDS_P2;PMS_P1;PMS_P2;Temp;Humidity;BMP_temperature;BMP_pressure;BME280_temperature;BME280_humidity;BME280_pressure;Samples;Min_cycle;Max_cycle;Signal;HPM_P1;HPM_P2
2023/06/09 00:00:40;;;;;;;16.33;6.65;;;;;;;;;;5055804;28;20496;-74
2023/06/09 00:03:07;;;;;;;21.67;6.90;;;;;;;;;;5072123;28;20050;-75
2023/06/09 00:05:34;;;;;;;18.80;6.50;;;;;;;;;;5071028;28;20082;-74
2023/06/09 00:08:00;;;;;;;20.38;7.07;;;;;;;;;;5052638;28;20036;-75
2023/06/09 00:10:26;;;;;;;17.38;6.72;;;;;;;;;;5072367;28;20519;-75
2023/06/09 00:12:53;;;;;;;15.55;6.72;;;;;;;;;;5072956;28;20039;-75
2023/06/09 00:15:20;;;;;;;15.93;6.07;;;;;;;;;;5066303;28;20537;-75
2023/06/09 00:17:46;;;;;;;22.98;7.10;;;;;;;;;;5060696;28;20037;-75
2023/06/09 00:20:13;;;;;;;20.63;7.35;;;;;;;;;;5035438;28;20045;-74
2023/06/09 00:22:43;;;;;;;18.98;6.70;;;;;;;;;;5071740;28;20045;-75
2023/06/09 00:25:10;;;;;;;21.65;7.30;;;;;;;;;;5071934;28;20438;-75
2023/06/09 00:27:36;;;;;;;16.40;6.53;;;;;;;;;;5060484;28;20041;-75
2023/06/09 00:30:03;;;;;;;19.58;7.38;;;;;;;;;;5064033;28;20048;-75
2023/06/09 00:32:29;;;;;;;21.05;6.80;;;;;;;;;;5067915;28;20482;-75
2023/06/09 00:34:55;;;;;;;17.48;6.53;;;;;;;;;;5061359;28;20059;-75
2023/06/09 00:37:21;;;;;;;14.93;6.70;;;;;;;;;;5071238;28;20123;-75
2023/06/09 00:39:47;;;;;;;20.70;6.25;;;;;;;;;;5049948;28;20485;-75
2023/06/09 00:42:13;;;;;;;15.75;6.55;;;;;;;;;;5052683;28;20557;-74
2023/06/09 00:44:39;;;;;;;17.83;7.07;;;;;;;;;;5054351;28;20037;-75
2023/06/09 00:47:06;;;;;;;16.60;6.20;;;;;;;;;;5070573;28;20052;-75
2023/06/09 00:49:33;;;;;;;20.42;7.07;;;;;;;;;;5065335;28;20432;-75
2023/06/09 00:51:59;;;;;;;18.70;6.60;;;;;;;;;;5063296;28;20450;-74
2023/06/09 00:54:25;;;;;;;18.70;7.30;;;;;;;;;;5071279;28;20036;-75
2023/06/09 00:56:51;;;;;;;22.15;6.50;;;;;;;;;;5070501;28;20036;-75
2023/06/09 00:59:18;;;;;;;21.85;6.72;;;;;;;;;;5068302;28;20493;-75
2023/06/09 01:01:44;;;;;;;18.83;7.00;;;;;;;;;;5058696;28;20040;-75
2023/06/09 01:04:12;;;;;;;14.80;7.20;;;;;;;;;;5071412;28;20040;-75
2023/06/09 01:06:45;;;;;;;22.45;7.10;;;;;;;;;;5070724;28;20044;-75
2023/06/09 01:09:30;;;;;;;18.67;6.88;;;;;;;;;;5070551;28;20490;-75
2023/06/09 01:12:16;;;;;;;16.17;6.60;;;;;;;;;;5038605;28;20367;-75
2023/06/09 01:14:48;;;;;;;16.60;6.40;;;;;;;;;;5063087;28;20398;-75
2023/06/09 01:17:18;;;;;;;18.05;6.68;;;;;;;;;;5060789;28;20040;-74
2023/06/09 01:19:56;;;;;;;14.50;6.40;;;;;;;;;;5057926;28;20049;-75
2023/06/09 01:22:22;;;;;;;19.10;6.68;;;;;;;;;;5064243;28;20048;-75
2023/06/09 01:25:12;;;;;;;17.77;6.57;;;;;;;;;;5070777;28;20048;-74
2023/06/09 01:27:39;;;;;;;22.27;7.60;;;;;;;;;;5065441;28;20067;-75
2023/06/09 01:30:06;;;;;;;21.55;7.00;;;;;;;;;;5060465;28;20050;-75
2023/06/09 01:32:33;;;;;;;18.33;6.80;;;;;;;;;;5066922;28;20396;-75
2023/06/09 01:34:59;;;;;;;16.10;7.00;;;;;;;;;;5053618;28;20053;-75
2023/06/09 01:37:25;;;;;;;21.67;7.40;;;;;;;;;;5053944;28;20048;-75
2023/06/09 01:39:52;;;;;;;23.05;7.60;;;;;;;;;;5063741;28;20445;-74
2023/06/09 01:42:18;;;;;;;20.35;7.43;;;;;;;;;;5063881;28;20040;-75
2023/06/09 01:44:44;;;;;;;21.58;7.80;;;;;;;;;;5062338;28;20040;-75
2023/06/09 01:47:10;;;;;;;19.55;6.90;;;;;;;;;;5055343;28;20053;-75
2023/06/09 01:49:55;;;;;;;19.85;7.22;;;;;;;;;;5061017;28;20501;-75
2023/06/09 01:52:27;;;;;;;19.13;6.95;;;;;;;;;;5067715;28;20444;-75
2023/06/09 01:54:55;;;;;;;17.65;6.97;;;;;;;;;;5070184;28;20036;-75
2023/06/09 01:57:31;;;;;;;19.75;7.20;;;;;;;;;;5070145;28;20040;-75
2023/06/09 02:00:01;;;;;;;18.40;7.03;;;;;;;;;;5053786;28;20382;-74
2023/06/09 02:02:31;;;;;;;18.98;7.15;;;;;;;;;;5049132;28;20080;-75
2023/06/09 02:04:58;;;;;;;18.00;7.90;;;;;;;;;;5028272;28;20403;-75
2023/06/09 02:07:25;;;;;;;19.70;7.18;;;;;;;;;;5041991;28;20029;-75
2023/06/09 02:09:51;;;;;;;18.75;7.18;;;;;;;;;;5034265;28;20135;-75
2023/06/09 02:12:17;;;;;;;18.55;7.32;;;;;;;;;;5033679;28;20045;-75
2023/06/09 02:14:43;;;;;;;22.55;7.00;;;;;;;;;;5033469;28;20063;-75
2023/06/09 02:17:10;;;;;;;20.02;7.38;;;;;;;;;;5049919;28;20084;-75
2023/06/09 02:19:39;;;;;;;17.50;6.82;;;;;;;;;;5039451;28;20052;-75
2023/06/09 02:22:09;;;;;;;23.60;7.63;;;;;;;;;;5051629;28;20048;-75
2023/06/09 02:24:35;;;;;;;20.13;8.07;;;;;;;;;;5036631;28;20033;-75
2023/06/09 02:27:02;;;;;;;18.70;7.50;;;;;;;;;;5051437;28;20397;-75
2023/06/09 02:29:29;;;;;;;16.92;6.82;;;;;;;;;;5050187;28;20052;-75
2023/06/09 02:31:55;;;;;;;21.13;8.15;;;;;;;;;;5049412;28;20095;-75
2023/06/09 02:34:25;;;;;;;21.10;7.15;;;;;;;;;;5049969;28;20045;-75
2023/06/09 02:36:55;;;;;;;17.98;7.10;;;;;;;;;;5051191;28;20037;-75
2023/06/09 02:39:22;;;;;;;14.60;6.38;;;;;;;;;;5050165;28;20041;-75
2023/06/09 02:41:48;;;;;;;15.75;6.72;;;;;;;;;;5049318;28;20041;-75
2023/06/09 02:44:14;;;;;;;28.30;7.43;;;;;;;;;;5055154;28;20507;-75
2023/06/09 02:46:42;;;;;;;26.55;7.88;;;;;;;;;;5037629;28;20060;-75
2023/06/09 02:49:08;;;;;;;22.60;7.38;;;;;;;;;;5036570;28;20044;-75
2023/06/09 02:51:35;;;;;;;19.00;7.63;;;;;;;;;;5045719;28;20091;-75
2023/06/09 02:54:01;;;;;;;19.23;6.95;;;;;;;;;;5047348;28;20052;-75
2023/06/09 02:56:27;;;;;;;18.15;7.50;;;;;;;;;;5036686;28;20397;-75
2023/06/09 02:58:53;;;;;;;19.42;7.20;;;;;;;;;;5059671;28;20127;-75
2023/06/09 03:01:20;;;;;;;21.05;7.20;;;;;;;;;;5053079;28;20547;-75
2023/06/09 03:03:47;;;;;;;18.08;6.97;;;;;;;;;;5054576;28;20037;-75
2023/06/09 03:06:13;;;;;;;19.77;6.65;;;;;;;;;;5036047;28;20461;-75
2023/06/09 03:08:40;;;;;;;16.95;7.20;;;;;;;;;;5055766;28;20041;-75
2023/06/09 03:11:06;;;;;;;20.90;7.25;;;;;;;;;;5052996;28;20045;-76
2023/06/09 03:13:32;;;;;;;18.10;7.22;;;;;;;;;;5053233;28;20041;-75
2023/06/09 03:15:58;;;;;;;21.55;7.97;;;;;;;;;;5036137;28;20076;-75
2023/06/09 03:18:26;;;;;;;20.08;6.95;;;;;;;;;;5053487;28;20110;-75
2023/06/09 03:20:52;;;;;;;21.25;6.95;;;;;;;;;;5052957;28;20053;-75
2023/06/09 03:23:19;;;;;;;20.42;6.85;;;;;;;;;;5036016;28;20045;-75
2023/06/09 03:25:46;;;;;;;17.42;6.90;;;;;;;;;;5052627;28;20044;-75
2023/06/09 03:28:12;;;;;;;16.83;6.90;;;;;;;;;;5054669;28;20406;-75
2023/06/09 03:30:38;;;;;;;21.60;7.10;;;;;;;;;;5053870;28;20048;-75
2023/06/09 03:33:05;;;;;;;20.45;6.65;;;;;;;;;;5048061;28;20040;-75
2023/06/09 03:35:31;;;;;;;19.42;7.47;;;;;;;;;;5072766;28;20040;-75
2023/06/09 03:37:58;;;;;;;18.25;7.40;;;;;;;;;;5049633;28;20040;-75
2023/06/09 03:40:24;;;;;;;19.90;7.53;;;;;;;;;;5065841;28;20501;-75
2023/06/09 03:42:50;;;;;;;16.23;7.00;;;;;;;;;;5072758;28;20029;-75
2023/06/09 03:45:16;;;;;;;16.55;7.15;;;;;;;;;;5055541;28;20063;-75
2023/06/09 03:47:42;;;;;;;21.50;7.35;;;;;;;;;;5072192;28;20036;-75
2023/06/09 03:50:08;;;;;;;14.35;6.60;;;;;;;;;;5044953;28;20500;-75
2023/06/09 03:52:34;;;;;;;22.17;6.57;;;;;;;;;;5053559;28;20040;-75
2023/06/09 03:55:01;;;;;;;16.30;6.72;;;;;;;;;;5051907;28;20110;-75
2023/06/09 03:57:27;;;;;;;21.48;6.72;;;;;;;;;;5035792;28;20397;-75
2023/06/09 03:59:53;;;;;;;17.60;6.50;;;;;;;;;;5052345;28;20052;-75
2023/06/09 04:02:19;;;;;;;19.67;7.03;;;;;;;;;;5052696;28;20505;-75
2023/06/09 04:04:45;;;;;;;20.13;7.70;;;;;;;;;;5035235;28;20056;-75
2023/06/09 04:07:14;;;;;;;16.70;6.35;;;;;;;;;;5051134;28;20048;-75
2023/06/09 04:09:41;;;;;;;18.23;6.50;;;;;;;;;;5052176;28;20099;-75
2023/06/09 04:12:07;;;;;;;15.80;6.25;;;;;;;;;;5052548;28;20049;-75
2023/06/09 04:14:33;;;;;;;19.38;6.40;;;;;;;;;;5052012;28;20041;-76
2023/06/09 04:16:59;;;;;;;16.95;6.47;;;;;;;;;;5053137;28;20076;-75
2023/06/09 04:19:25;;;;;;;19.60;6.57;;;;;;;;;;5051343;28;20520;-76
2023/06/09 04:21:52;;;;;;;16.60;6.38;;;;;;;;;;5036089;28;20071;-76
2023/06/09 04:24:18;;;;;;;16.13;6.68;;;;;;;;;;5052649;28;20041;-76
2023/06/09 04:26:45;;;;;;;17.65;6.60;;;;;;;;;;5051725;28;20095;-76
2023/06/09 04:29:12;;;;;;;14.57;6.82;;;;;;;;;;5051394;28;20516;-76
2023/06/09 04:31:42;;;;;;;20.55;6.38;;;;;;;;;;5054175;28;20044;-76
2023/06/09 04:34:12;;;;;;;18.05;6.55;;;;;;;;;;5043748;28;20051;-76
2023/06/09 04:36:39;;;;;;;18.48;6.72;;;;;;;;;;5051515;28;20123;-75
2023/06/09 04:39:09;;;;;;;13.30;5.82;;;;;;;;;;5052959;28;20057;-76
2023/06/09 04:41:35;;;;;;;15.85;6.10;;;;;;;;;;5043553;28;20371;-75
2023/06/09 04:44:05;;;;;;;15.98;5.90;;;;;;;;;;5058763;28;20067;-76
2023/06/09 04:46:37;;;;;;;14.00;5.90;;;;;;;;;;5050828;28;20045;-76
2023/06/09 04:49:08;;;;;;;11.93;6.10;;;;;;;;;;5051359;28;20068;-86
2023/06/09 04:51:41;;;;;;;15.05;5.85;;;;;;;;;;5051329;28;20040;-85
2023/06/09 04:54:08;;;;;;;15.25;5.82;;;;;;;;;;5061395;28;20495;-86
2023/06/09 04:56:36;;;;;;;14.90;5.53;;;;;;;;;;5051528;28;20495;-85
2023/06/09 04:59:03;;;;;;;12.80;5.30;;;;;;;;;;5034611;28;20028;-85
2023/06/09 05:01:29;;;;;;;15.18;5.35;;;;;;;;;;5050877;28;20041;-86
2023/06/09 05:03:56;;;;;;;16.80;5.57;;;;;;;;;;5051651;28;20045;-86
2023/06/09 05:06:23;;;;;;;14.35;5.68;;;;;;;;;;5050549;28;20067;-86
2023/06/09 05:08:50;;;;;;;13.13;5.65;;;;;;;;;;5014566;28;20048;-85
2023/06/09 05:11:17;;;;;;;14.07;5.50;;;;;;;;;;5082363;28;20098;-86
2023/06/09 05:13:43;;;;;;;15.05;5.70;;;;;;;;;;5068595;28;20051;-85
2023/06/09 05:16:09;;;;;;;12.68;5.80;;;;;;;;;;5033968;28;20041;-86
2023/06/09 05:18:35;;;;;;;16.17;6.07;;;;;;;;;;5050326;28;20056;-86
2023/06/09 05:21:01;;;;;;;13.10;5.45;;;;;;;;;;5050380;28;20057;-85
2023/06/09 05:23:27;;;;;;;13.65;5.40;;;;;;;;;;5050290;28;20724;-85
2023/06/09 05:25:53;;;;;;;15.63;5.53;;;;;;;;;;5051521;28;20037;-86
2023/06/09 05:28:19;;;;;;;13.80;5.00;;;;;;;;;;5050006;28;20033;-86
2023/06/09 05:30:45;;;;;;;13.98;5.15;;;;;;;;;;5034113;28;20044;-84
2023/06/09 05:33:11;;;;;;;16.27;5.93;;;;;;;;;;5050711;28;21265;-86
2023/06/09 05:35:38;;;;;;;14.23;5.65;;;;;;;;;;5058446;28;20075;-86
2023/06/09 05:38:04;;;;;;;16.83;6.13;;;;;;;;;;5050935;28;20072;-86
2023/06/09 05:40:30;;;;;;;14.50;5.53;;;;;;;;;;5050106;28;20482;-84
2023/06/09 05:42:56;;;;;;;15.63;5.43;;;;;;;;;;5050609;28;20029;-84
2023/06/09 05:45:22;;;;;;;11.45;5.22;;;;;;;;;;5050476;28;20060;-84
2023/06/09 05:47:49;;;;;;;16.85;5.93;;;;;;;;;;5050774;28;20490;-84
2023/06/09 05:50:15;;;;;;;13.88;5.90;;;;;;;;;;5050389;28;20071;-84
2023/06/09 05:52:41;;;;;;;15.77;5.35;;;;;;;;;;5034008;28;20511;-84
2023/06/09 05:55:08;;;;;;;12.02;5.50;;;;;;;;;;5051645;28;20037;-84
2023/06/09 05:57:34;;;;;;;13.40;5.93;;;;;;;;;;5051808;28;20402;-84
2023/06/09 06:00:01;;;;;;;13.77;5.63;;;;;;;;;;5052983;28;20088;-84
2023/06/09 06:02:27;;;;;;;17.50;6.22;;;;;;;;;;5050265;28;20406;-84
2023/06/09 06:04:53;;;;;;;11.98;5.07;;;;;;;;;;5050202;28;20079;-84
2023/06/09 06:07:22;;;;;;;12.82;5.75;;;;;;;;;;5051765;28;20500;-84
2023/06/09 06:09:48;;;;;;;12.35;5.53;;;;;;;;;;5036784;28;20045;-84
2023/06/09 06:12:14;;;;;;;15.75;5.85;;;;;;;;;;5034004;28;20427;-84
2023/06/09 06:14:41;;;;;;;13.73;5.78;;;;;;;;;;5036343;28;20102;-84
2023/06/09 06:17:07;;;;;;;16.95;5.60;;;;;;;;;;5054451;28;20036;-84
2023/06/09 06:19:33;;;;;;;11.20;5.50;;;;;;;;;;5053842;28;20485;-83
2023/06/09 06:21:59;;;;;;;12.40;5.40;;;;;;;;;;5055673;28;20441;-84
2023/06/09 06:24:25;;;;;;;13.43;5.95;;;;;;;;;;5053217;28;20083;-85
2023/06/09 06:26:51;;;;;;;17.70;5.68;;;;;;;;;;5053754;28;20037;-85
2023/06/09 06:29:17;;;;;;;13.98;5.72;;;;;;;;;;5054860;28;20051;-85
2023/06/09 06:31:43;;;;;;;17.58;5.65;;;;;;;;;;5053709;28;20124;-84
2023/06/09 06:34:09;;;;;;;12.68;5.13;;;;;;;;;;5053726;28;20045;-84
2023/06/09 06:36:35;;;;;;;12.35;5.60;;;;;;;;;;5037168;28;20105;-84
2023/06/09 06:39:02;;;;;;;11.60;5.47;;;;;;;;;;5054351;28;20508;-84
2023/06/09 06:41:28;;;;;;;10.93;5.18;;;;;;;;;;5036448;28;20049;-84
2023/06/09 06:43:54;;;;;;;12.55;5.70;;;;;;;;;;5052366;28;20040;-84
2023/06/09 06:46:20;;;;;;;18.42;5.50;;;;;;;;;;5053511;28;20053;-85
2023/06/09 06:48:46;;;;;;;10.63;5.60;;;;;;;;;;5053234;28;20509;-84
2023/06/09 06:51:13;;;;;;;13.00;5.38;;;;;;;;;;5037433;28;20040;-84
2023/06/09 06:53:39;;;;;;;13.93;5.70;;;;;;;;;;5052831;28;20044;-84
2023/06/09 06:56:05;;;;;;;12.05;5.47;;;;;;;;;;5036733;28;20511;-84
2023/06/09 06:58:32;;;;;;;11.52;5.70;;;;;;;;;;5053228;28;20045;-84
2023/06/09 07:00:58;;;;;;;13.10;5.68;;;;;;;;;;5053202;28;20044;-84
2023/06/09 07:03:24;;;;;;;12.77;5.65;;;;;;;;;;5053558;28;20036;-84
2023/06/09 07:05:51;;;;;;;10.02;5.25;;;;;;;;;;5052995;28;20077;-84
2023/06/09 07:08:18;;;;;;;13.48;5.72;;;;;;;;;;5020306;28;20041;-84
2023/06/09 07:10:44;;;;;;;14.32;5.72;;;;;;;;;;5036626;28;20123;-84
2023/06/09 07:13:10;;;;;;;13.25;5.40;;;;;;;;;;5039288;28;20044;-85
2023/06/09 07:15:37;;;;;;;11.25;5.30;;;;;;;;;;5036488;28;20482;-85
2023/06/09 07:18:03;;;;;;;12.20;5.47;;;;;;;;;;5052669;28;20452;-84
2023/06/09 07:20:30;;;;;;;11.10;5.68;;;;;;;;;;5051815;28;20049;-84
2023/06/09 07:22:56;;;;;;;11.73;5.70;;;;;;;;;;5051504;28;20071;-84
2023/06/09 07:25:22;;;;;;;11.90;5.40;;;;;;;;;;5053027;28;20097;-85
2023/06/09 07:27:49;;;;;;;13.27;5.88;;;;;;;;;;5051883;28;20120;-85
2023/06/09 07:30:15;;;;;;;9.60;5.68;;;;;;;;;;5053122;28;20102;-85
2023/06/09 07:32:41;;;;;;;11.80;5.78;;;;;;;;;;5052180;28;20044;-85
2023/06/09 07:35:12;;;;;;;10.00;5.55;;;;;;;;;;5052606;28;20045;-85
2023/06/09 07:37:39;;;;;;;13.65;5.63;;;;;;;;;;5051843;28;20156;-85
2023/06/09 07:40:06;;;;;;;12.55;5.40;;;;;;;;;;5053617;28;20091;-85
2023/06/09 07:42:33;;;;;;;13.52;5.53;;;;;;;;;;5051629;28;20120;-85
2023/06/09 07:44:59;;;;;;;11.30;5.57;;;;;;;;;;5051919;28;20048;-85
2023/06/09 07:47:25;;;;;;;13.05;5.38;;;;;;;;;;5036143;28;20509;-85
2023/06/09 07:49:51;;;;;;;11.15;4.97;;;;;;;;;;5051150;28;20045;-85
2023/06/09 07:52:17;;;;;;;11.95;5.43;;;;;;;;;;5035755;28;20406;-85
2023/06/09 07:54:43;;;;;;;9.98;5.03;;;;;;;;;;5035702;28;20125;-85
2023/06/09 07:57:10;;;;;;;8.98;4.30;;;;;;;;;;5085765;28;20037;-84
2023/06/09 07:59:36;;;;;;;10.48;4.95;;;;;;;;;;5053624;28;20498;-85
2023/06/09 08:02:02;;;;;;;10.35;5.10;;;;;;;;;;5061664;28;20040;-86
2023/06/09 08:04:29;;;;;;;11.63;4.70;;;;;;;;;;5052954;28;20060;-85
2023/06/09 08:06:58;;;;;;;12.52;5.03;;;;;;;;;;5052982;28;20049;-85
2023/06/09 08:09:28;;;;;;;8.40;4.40;;;;;;;;;;5053958;28;20086;-85
2023/06/09 08:11:54;;;;;;;12.10;4.88;;;;;;;;;;5054242;28;20045;-86
2023/06/09 08:14:22;;;;;;;9.95;4.43;;;;;;;;;;5052347;28;20067;-85
2023/06/09 08:16:49;;;;;;;10.77;4.30;;;;;;;;;;5051707;28;20524;-85
2023/06/09 08:19:15;;;;;;;10.70;4.60;;;;;;;;;;5051395;28;20052;-85
2023/06/09 08:21:43;;;;;;;9.13;4.45;;;;;;;;;;5052010;28;20505;-86
2023/06/09 08:24:13;;;;;;;8.80;4.30;;;;;;;;;;5048812;28;20040;-86
2023/06/09 08:26:39;;;;;;;9.55;4.70;;;;;;;;;;5051272;28;20040;-85
2023/06/09 08:29:07;;;;;;;12.77;4.65;;;;;;;;;;5051320;28;20040;-86
2023/06/09 08:31:33;;;;;;;11.98;4.65;;;;;;;;;;5050951;28;20397;-86
2023/06/09 08:34:00;;;;;;;12.30;5.00;;;;;;;;;;5056086;28;20080;-85
2023/06/09 08:36:26;;;;;;;9.15;4.38;;;;;;;;;;5051229;28;20049;-85
2023/06/09 08:38:52;;;;;;;12.10;5.40;;;;;;;;;;5036804;28;20036;-85
2023/06/09 08:41:20;;;;;;;10.80;4.88;;;;;;;;;;5050810;28;20037;-86
2023/06/09 08:43:47;;;;;;;9.50;4.60;;;;;;;;;;5051062;28;20036;-86
2023/06/09 08:46:13;;;;;;;12.02;4.80;;;;;;;;;;5051335;28;20053;-85
2023/06/09 08:48:42;;;;;;;10.82;4.78;;;;;;;;;;5034693;28;20091;-85
2023/06/09 08:51:08;;;;;;;9.15;4.85;;;;;;;;;;5053591;28;20052;-85
2023/06/09 08:53:35;;;;;;;11.15;5.00;;;;;;;;;;5051428;28;20048;-86
2023/06/09 08:56:01;;;;;;;9.32;4.50;;;;;;;;;;5051031;28;20128;-85
2023/06/09 08:58:28;;;;;;;12.98;4.80;;;;;;;;;;5051422;28;20045;-86
2023/06/09 09:00:54;;;;;;;13.27;5.25;;;;;;;;;;5059465;28;20497;-85
2023/06/09 09:03:20;;;;;;;10.10;4.93;;;;;;;;;;5051499;28;20517;-85
2023/06/09 09:05:47;;;;;;;11.50;5.32;;;;;;;;;;5034596;28;20443;-85
2023/06/09 09:08:14;;;;;;;10.55;4.90;;;;;;;;;;5051275;28;20041;-85
2023/06/09 09:10:45;;;;;;;14.70;4.68;;;;;;;;;;5052547;28;20508;-85
2023/06/09 09:13:12;;;;;;;10.40;4.95;;;;;;;;;;5048833;28;20394;-85
2023/06/09 09:15:46;;;;;;;7.95;4.32;;;;;;;;;;5050992;28;20516;-85
2023/06/09 09:18:12;;;;;;;8.48;4.90;;;;;;;;;;5050484;28;20060;-85
2023/06/09 09:20:39;;;;;;;11.18;4.60;;;;;;;;;;5035386;28;20077;-85
2023/06/09 09:23:06;;;;;;;8.15;4.90;;;;;;;;;;5050270;28;20045;-85
2023/06/09 09:25:32;;;;;;;11.13;5.38;;;;;;;;;;5034757;28;20071;-85
2023/06/09 09:28:02;;;;;;;10.40;4.72;;;;;;;;;;5033844;28;20052;-75
2023/06/09 09:30:40;;;;;;;9.40;5.05;;;;;;;;;;5050802;28;20498;-76
2023/06/09 09:33:10;;;;;;;9.55;4.90;;;;;;;;;;5051369;28;20072;-76
2023/06/09 09:35:37;;;;;;;10.57;4.88;;;;;;;;;;5050031;28;20065;-76
2023/06/09 09:38:03;;;;;;;8.77;4.57;;;;;;;;;;5049783;28;20099;-76
2023/06/09 09:40:30;;;;;;;11.27;4.50;;;;;;;;;;5033187;28;20041;-76
2023/06/09 09:43:02;;;;;;;12.80;5.20;;;;;;;;;;5050699;28;20051;-85
2023/06/09 09:45:29;;;;;;;10.32;4.90;;;;;;;;;;5050239;28;20479;-85
2023/06/09 09:48:08;;;;;;;8.32;4.95;;;;;;;;;;5050064;28;20114;-86
2023/06/09 09:50:36;;;;;;;8.73;4.55;;;;;;;;;;5050501;28;20052;-85
2023/06/09 09:53:06;;;;;;;10.23;5.78;;;;;;;;;;5030913;28;20083;-85
2023/06/09 09:55:35;;;;;;;9.13;5.18;;;;;;;;;;5038294;28;20045;-85
2023/06/09 09:58:04;;;;;;;7.95;4.78;;;;;;;;;;5054494;28;20044;-86
2023/06/09 10:00:32;;;;;;;8.98;4.93;;;;;;;;;;5054357;28;20052;-85
2023/06/09 10:03:00;;;;;;;9.70;4.97;;;;;;;;;;5039158;28;20502;-86
2023/06/09 10:05:30;;;;;;;8.35;4.70;;;;;;;;;;5055072;28;20477;-84
2023/06/09 10:07:56;;;;;;;8.77;4.85;;;;;;;;;;5037766;28;20546;-85
2023/06/09 10:10:23;;;;;;;10.32;5.45;;;;;;;;;;5054524;28;20127;-84
2023/06/09 10:12:50;;;;;;;9.57;5.05;;;;;;;;;;5054402;28;20048;-85
2023/06/09 10:15:17;;;;;;;8.77;5.55;;;;;;;;;;5061426;28;20040;-85
2023/06/09 10:17:43;;;;;;;9.82;5.10;;;;;;;;;;5055645;28;20086;-85
2023/06/09 10:20:10;;;;;;;12.32;5.13;;;;;;;;;;5053938;28;20067;-84
2023/06/09 10:22:36;;;;;;;10.20;4.97;;;;;;;;;;5054318;28;20528;-84
2023/06/09 10:25:04;;;;;;;12.93;5.00;;;;;;;;;;5063442;28;20037;-85
2023/06/09 10:27:30;;;;;;;8.02;4.82;;;;;;;;;;5062642;28;20108;-85
2023/06/09 10:29:56;;;;;;;8.25;5.32;;;;;;;;;;5053778;28;20041;-84
2023/06/09 10:32:25;;;;;;;9.82;4.85;;;;;;;;;;5053911;28;20045;-84
2023/06/09 10:34:52;;;;;;;10.52;5.28;;;;;;;;;;5054744;28;20075;-84
2023/06/09 10:37:31;;;;;;;9.85;5.10;;;;;;;;;;5052471;28;20501;-85
2023/06/09 10:40:02;;;;;;;10.20;4.95;;;;;;;;;;5053820;28;20047;-85
2023/06/09 10:43:01;;;;;;;8.60;5.05;;;;;;;;;;5059668;28;20049;-84
2023/06/09 10:45:48;;;;;;;10.50;5.25;;;;;;;;;;5031072;28;20902;-84
2023/06/09 10:48:15;;;;;;;8.45;4.70;;;;;;;;;;5036936;28;20525;-84
2023/06/09 10:50:41;;;;;;;10.65;4.72;;;;;;;;;;5036942;28;20049;-84
2023/06/09 10:53:19;;;;;;;7.25;4.75;;;;;;;;;;5037057;28;20049;-84
2023/06/09 10:55:45;;;;;;;9.80;4.88;;;;;;;;;;5053888;28;20048;-84
2023/06/09 10:58:31;;;;;;;7.40;4.40;;;;;;;;;;5037458;28;20045;-84
2023/06/09 11:01:07;;;;;;;13.15;4.47;;;;;;;;;;5036963;28;20052;-85
2023/06/09 11:03:33;;;;;;;9.77;4.75;;;;;;;;;;5054319;28;20051;-85
2023/06/09 11:06:00;;;;;;;10.10;4.65;;;;;;;;;;5054950;28;20044;-75
2023/06/09 11:08:27;;;;;;;9.93;4.72;;;;;;;;;;5053751;28;20033;-75
2023/06/09 11:10:53;;;;;;;9.57;4.95;;;;;;;;;;5038320;28;21592;-75
2023/06/09 11:13:46;;;;;;;7.80;4.50;;;;;;;;;;5056035;28;20041;-75
2023/06/09 11:16:12;;;;;;;6.85;4.25;;;;;;;;;;5054109;28;20118;-75
2023/06/09 11:18:39;;;;;;;8.20;4.43;;;;;;;;;;5046111;28;20490;-75
2023/06/09 11:21:09;;;;;;;10.20;4.35;;;;;;;;;;5051895;28;20533;-75
2023/06/09 11:23:54;;;;;;;7.57;4.65;;;;;;;;;;5052752;28;20094;-75
2023/06/09 11:26:24;;;;;;;8.07;5.03;;;;;;;;;;5052630;28;20405;-75
2023/06/09 11:28:50;;;;;;;9.30;4.50;;;;;;;;;;5052577;28;20041;-85
2023/06/09 11:31:17;;;;;;;7.00;4.35;;;;;;;;;;5052183;28;20095;-84
2023/06/09 11:33:45;;;;;;;9.43;4.57;;;;;;;;;;5051930;28;20044;-85
2023/06/09 11:36:16;;;;;;;8.45;4.82;;;;;;;;;;5052091;28;20045;-85
2023/06/09 11:38:42;;;;;;;9.32;4.57;;;;;;;;;;5072964;28;20490;-85
2023/06/09 11:41:10;;;;;;;8.00;4.40;;;;;;;;;;5052355;28;20513;-75
2023/06/09 11:43:37;;;;;;;8.55;4.82;;;;;;;;;;5052016;28;20036;-75
2023/06/09 11:46:06;;;;;;;6.93;4.63;;;;;;;;;;5053636;28;20052;-75
2023/06/09 11:48:32;;;;;;;8.55;4.35;;;;;;;;;;5035741;28;20076;-75
2023/06/09 11:50:58;;;;;;;10.30;4.97;;;;;;;;;;5052340;28;20072;-75
2023/06/09 11:53:25;;;;;;;7.82;4.28;;;;;;;;;;5051735;28;20048;-75
2023/06/09 11:56:06;;;;;;;8.55;4.75;;;;;;;;;;5052345;28;20048;-75
2023/06/09 11:58:32;;;;;;;7.43;4.65;;;;;;;;;;5052406;28;20517;-75
2023/06/09 12:00:58;;;;;;;7.30;4.85;;;;;;;;;;5050825;28;20053;-75
2023/06/09 12:03:25;;;;;;;6.43;4.53;;;;;;;;;;5035100;28;20042;-75
2023/06/09 12:05:52;;;;;;;11.05;4.75;;;;;;;;;;5056654;28;20044;-75
2023/06/09 12:08:18;;;;;;;6.43;4.28;;;;;;;;;;5051650;28;20041;-75
2023/06/09 12:10:44;;;;;;;6.82;4.60;;;;;;;;;;5052048;28;20053;-75
2023/06/09 12:13:10;;;;;;;7.93;4.53;;;;;;;;;;5051244;28;20045;-75
2023/06/09 12:15:36;;;;;;;6.07;4.40;;;;;;;;;;5054438;28;20037;-75
2023/06/09 12:18:03;;;;;;;9.32;4.80;;;;;;;;;;5034998;28;20040;-75
2023/06/09 12:20:33;;;;;;;8.35;4.82;;;;;;;;;;5051261;28;20070;-75
2023/06/09 12:23:06;;;;;;;8.48;4.80;;;;;;;;;;5051987;28;20498;-76
2023/06/09 12:25:37;;;;;;;8.85;5.13;;;;;;;;;;5038306;28;20037;-75
2023/06/09 12:28:15;;;;;;;6.68;4.78;;;;;;;;;;5051751;28;20045;-75
2023/06/09 12:30:47;;;;;;;10.23;5.00;;;;;;;;;;5034871;28;20060;-75
2023/06/09 12:33:14;;;;;;;8.57;5.13;;;;;;;;;;5052944;28;20079;-75
2023/06/09 12:35:47;;;;;;;8.02;5.13;;;;;;;;;;5053832;28;20477;-75
2023/06/09 12:38:13;;;;;;;8.18;5.03;;;;;;;;;;5035624;28;20458;-76
2023/06/09 12:40:52;;;;;;;6.70;4.68;;;;;;;;;;5035595;28;20124;-75
2023/06/09 12:43:21;;;;;;;6.05;5.05;;;;;;;;;;5051344;28;20120;-75
2023/06/09 12:45:47;;;;;;;7.57;4.47;;;;;;;;;;5084135;28;20049;-75
2023/06/09 12:48:14;;;;;;;6.97;5.10;;;;;;;;;;5052264;28;20067;-76
2023/06/09 12:50:43;;;;;;;10.10;5.22;;;;;;;;;;5049279;28;20037;-75
2023/06/09 12:53:12;;;;;;;7.80;4.35;;;;;;;;;;5052405;28;20421;-76
2023/06/09 12:55:41;;;;;;;8.48;4.70;;;;;;;;;;5051746;28;20052;-76
2023/06/09 12:58:10;;;;;;;7.72;4.82;;;;;;;;;;5035121;28;20044;-76
2023/06/09 13:00:37;;;;;;;6.18;4.78;;;;;;;;;;5051500;28;20056;-75
2023/06/09 13:03:13;;;;;;;10.88;4.90;;;;;;;;;;5035431;28;20406;-76
2023/06/09 13:05:45;;;;;;;7.63;5.00;;;;;;;;;;5085761;28;20482;-76
2023/06/09 13:08:20;;;;;;;8.02;4.90;;;;;;;;;;5052842;28;20382;-76
2023/06/09 13:11:03;;;;;;;13.32;4.47;;;;;;;;;;5018397;28;20048;-76
2023/06/09 13:13:38;;;;;;;10.93;4.55;;;;;;;;;;5024290;28;20049;-76
2023/06/09 13:16:04;;;;;;;7.78;4.80;;;;;;;;;;5051270;28;20041;-76
2023/06/09 13:18:30;;;;;;;9.55;5.18;;;;;;;;;;5033491;28;20041;-76
2023/06/09 13:20:56;;;;;;;7.97;4.90;;;;;;;;;;5049870;28;20131;-76
2023/06/09 13:23:23;;;;;;;7.05;4.80;;;;;;;;;;5049515;28;20048;-76
2023/06/09 13:25:49;;;;;;;7.35;4.80;;;;;;;;;;5033710;28;20361;-76
2023/06/09 13:28:16;;;;;;;6.60;4.80;;;;;;;;;;5049406;28;20076;-76
2023/06/09 13:30:43;;;;;;;9.05;4.97;;;;;;;;;;5048944;28;20040;-76
2023/06/09 13:33:09;;;;;;;9.48;5.00;;;;;;;;;;5048630;28;20043;-75
2023/06/09 13:35:36;;;;;;;8.13;4.63;;;;;;;;;;5049114;28;20041;-76
2023/06/09 13:38:03;;;;;;;6.25;4.75;;;;;;;;;;5049376;28;20045;-76
2023/06/09 13:40:29;;;;;;;7.18;4.93;;;;;;;;;;5048941;28;20041;-76
2023/06/09 13:42:55;;;;;;;7.15;4.80;;;;;;;;;;5033397;28;20047;-77
2023/06/09 13:45:26;;;;;;;9.32;5.05;;;;;;;;;;5033738;28;20063;-76
2023/06/09 13:47:54;;;;;;;7.43;4.55;;;;;;;;;;5042197;28;20037;-76
2023/06/09 13:50:20;;;;;;;6.15;5.00;;;;;;;;;;5034319;28;20051;-76
2023/06/09 13:52:46;;;;;;;9.13;4.90;;;;;;;;;;5049922;28;20033;-76
2023/06/09 13:55:13;;;;;;;6.90;5.38;;;;;;;;;;5033846;28;20128;-76
2023/06/09 13:57:40;;;;;;;8.00;4.75;;;;;;;;;;5050451;28;20049;-76
2023/06/09 14:00:09;;;;;;;6.95;4.47;;;;;;;;;;5050874;28;20132;-76
2023/06/09 14:02:35;;;;;;;8.02;4.50;;;;;;;;;;5050102;28;20383;-76
2023/06/09 14:05:01;;;;;;;6.55;5.15;;;;;;;;;;5050347;28;20048;-76
2023/06/09 14:07:28;;;;;;;10.95;5.18;;;;;;;;;;5033546;28;20041;-76
2023/06/09 14:09:55;;;;;;;11.43;5.00;;;;;;;;;;5050682;28;20041;-76
2023/06/09 14:12:22;;;;;;;7.78;4.68;;;;;;;;;;5050708;28;20076;-76
2023/06/09 14:14:48;;;;;;;10.75;4.95;;;;;;;;;;5049507;28;20048;-76
2023/06/09 14:17:14;;;;;;;8.68;4.72;;;;;;;;;;5050440;28;20041;-75
2023/06/09 14:19:40;;;;;;;7.38;5.20;;;;;;;;;;5033524;28;20112;-76
2023/06/09 14:22:07;;;;;;;6.10;5.10;;;;;;;;;;5050510;28;20041;-76
2023/06/09 14:24:33;;;;;;;7.47;4.78;;;;;;;;;;5050861;28;20083;-76
2023/06/09 14:26:59;;;;;;;6.88;4.78;;;;;;;;;;5050484;28;20557;-76
2023/06/09 14:29:26;;;;;;;6.57;4.50;;;;;;;;;;5050529;28;20406;-75
2023/06/09 14:31:52;;;;;;;7.07;4.75;;;;;;;;;;5050245;28;20048;-76
2023/06/09 14:34:18;;;;;;;6.07;4.75;;;;;;;;;;5049896;28;20127;-76
2023/06/09 14:36:44;;;;;;;6.18;4.65;;;;;;;;;;5049437;28;20032;-76